sensor_id;sensor_type;location;lat;lon;timestamp;P1;durP1;ratioP1;P2;durP2;ratioP2
3769;SDS011;1900;48.890;9.190;2024-01-10T00:02:00;17.40;;;9.73;;
3769;SDS011;1900;48.890;9.190;2024-01-10T00:04:25;24.53;;;10.97;;
3769;SDS011;1900;48.890;9.190;2024-01-10T00:06:51;20.20;;;9.40;;
3769;SDS011;1900;48.890;9.190;2024-01-10T00:09:17;20.90;;;11.47;;
3769;SDS011;1900;48.890;9.190;2024-01-10T00:11:43;22.77;;;11.20;;
3769;SDS011;1900;48.890;9.190;2024-01-10T00:14:09;17.67;;;9.60;;
3769;SDS011;1900;48.890;9.190;2024-01-10T00:16:35;21.53;;;10.30;;
3769;SDS011;1900;48.890;9.190;2024-01-10T00:19:01;20.83;;;10.67;;
3769;SDS011;1900;48.890;9.190;2024-01-10T00:21:27;21.83;;;10.80;;
3769;SDS011;1900;48.890;9.190;2024-01-10T00:23:53;24.23;;;10.83;;
3769;SDS011;1900;48.890;9.190;2024-01-10T00:26:19;16.17;;;10.30;;
3769;SDS011;1900;48.890;9.190;2024-01-10T00:28:45;18.37;;;9.73;;
3769;SDS011;1900;48.890;9.190;2024-01-10T00:31:11;17.37;;;9.70;;
3769;SDS011;1900;48.890;9.190;2024-01-10T00:33:38;18.17;;;9.97;;
3769;SDS011;1900;48.890;9.190;2024-01-10T00:36:04;19.17;;;9.80;;
3769;SDS011;1900;48.890;9.190;2024-01-10T00:38:31;14.87;;;9.50;;
3769;SDS011;1900;48.890;9.190;2024-01-10T00:40:57;15.97;;;8.97;;
3769;SDS011;1900;48.890;9.190;2024-01-10T00:43:22;21.83;;;10.23;;
3769;SDS011;1900;48.890;9.190;2024-01-10T00:45:48;25.23;;;10.70;;
3769;SDS011;1900;48.890;9.190;2024-01-10T00:48:14;22.70;;;10.50;;
3769;SDS011;1900;48.890;9.190;2024-01-10T00:50:40;16.90;;;9.40;;
3769;SDS011;1900;48.890;9.190;2024-01-10T00:53:06;23.20;;;10.00;;
3769;SDS011;1900;48.890;9.190;2024-01-10T00:55:32;16.73;;;9.83;;
3769;SDS011;1900;48.890;9.190;2024-01-10T00:57:58;22.13;;;10.63;;
3769;SDS011;1900;48.890;9.190;2024-01-10T01:00:23;21.07;;;9.63;;
3769;SDS011;1900;48.890;9.190;2024-01-10T01:02:49;20.60;;;12.30;;
3769;SDS011;1900;48.890;9.190;2024-01-10T01:05:15;19.50;;;10.00;;
3769;SDS011;1900;48.890;9.190;2024-01-10T01:07:41;18.10;;;10.73;;
3769;SDS011;1900;48.890;9.190;2024-01-10T01:10:07;18.53;;;9.63;;
3769;SDS011;1900;48.890;9.190;2024-01-10T01:12:34;19.17;;;9.50;;
3769;SDS011;1900;48.890;9.190;2024-01-10T01:15:00;18.97;;;10.00;;
3769;SDS011;1900;48.890;9.190;2024-01-10T01:17:25;19.63;;;9.17;;
3769;SDS011;1900;48.890;9.190;2024-01-10T01:19:51;24.47;;;10.70;;
3769;SDS011;1900;48.890;9.190;2024-01-10T01:22:17;17.53;;;9.37;;
3769;SDS011;1900;48.890;9.190;2024-01-10T01:24:43;16.77;;;10.33;;
3769;SDS011;1900;48.890;9.190;2024-01-10T01:27:10;17.90;;;10.17;;
3769;SDS011;1900;48.890;9.190;2024-01-10T01:29:35;23.20;;;11.53;;
3769;SDS011;1900;48.890;9.190;2024-01-10T01:32:03;18.17;;;9.77;;
3769;SDS011;1900;48.890;9.190;2024-01-10T01:34:29;20.27;;;10.17;;
3769;SDS011;1900;48.890;9.190;2024-01-10T01:36:55;23.17;;;11.40;;
3769;SDS011;1900;48.890;9.190;2024-01-10T01:39:22;18.33;;;9.77;;
3769;SDS011;1900;48.890;9.190;2024-01-10T01:41:47;20.33;;;10.70;;
3769;SDS011;1900;48.890;9.190;2024-01-10T01:44:13;20.20;;;10.20;;
3769;SDS011;1900;48.890;9.190;2024-01-10T01:46:39;17.27;;;9.80;;
3769;SDS011;1900;48.890;9.190;2024-01-10T01:49:07;18.53;;;9.30;;
3769;SDS011;1900;48.890;9.190;2024-01-10T01:51:32;18.00;;;10.00;;
3769;SDS011;1900;48.890;9.190;2024-01-10T01:54:02;20.20;;;9.37;;
3769;SDS011;1900;48.890;9.190;2024-01-10T01:56:31;18.27;;;9.10;;
3769;SDS011;1900;48.890;9.190;2024-01-10T01:58:57;21.57;;;9.67;;
3769;SDS011;1900;48.890;9.190;2024-01-10T02:01:23;19.73;;;10.23;;
3769;SDS011;1900;48.890;9.190;2024-01-10T02:03:49;20.40;;;10.47;;
3769;SDS011;1900;48.890;9.190;2024-01-10T02:06:14;17.80;;;8.90;;
3769;SDS011;1900;48.890;9.190;2024-01-10T02:08:41;19.70;;;10.23;;
3769;SDS011;1900;48.890;9.190;2024-01-10T02:11:06;25.30;;;9.70;;
3769;SDS011;1900;48.890;9.190;2024-01-10T02:13:32;20.13;;;10.37;;
3769;SDS011;1900;48.890;9.190;2024-01-10T02:15:58;18.30;;;9.07;;
3769;SDS011;1900;48.890;9.190;2024-01-10T02:18:25;19.30;;;9.83;;
3769;SDS011;1900;48.890;9.190;2024-01-10T02:20:50;15.70;;;9.00;;
3769;SDS011;1900;48.890;9.190;2024-01-10T02:23:17;21.00;;;8.90;;
3769;SDS011;1900;48.890;9.190;2024-01-10T02:25:43;26.37;;;11.20;;
3769;SDS011;1900;48.890;9.190;2024-01-10T02:28:09;21.77;;;9.60;;
3769;SDS011;1900;48.890;9.190;2024-01-10T02:30:36;16.30;;;9.40;;
3769;SDS011;1900;48.890;9.190;2024-01-10T02:33:02;22.30;;;10.13;;
3769;SDS011;1900;48.890;9.190;2024-01-10T02:35:29;19.00;;;10.50;;
3769;SDS011;1900;48.890;9.190;2024-01-10T02:37:57;16.33;;;9.97;;
3769;SDS011;1900;48.890;9.190;2024-01-10T02:40:24;23.20;;;9.90;;
3769;SDS011;1900;48.890;9.190;2024-01-10T02:42:49;18.17;;;9.63;;
3769;SDS011;1900;48.890;9.190;2024-01-10T02:45:16;17.40;;;10.63;;
3769;SDS011;1900;48.890;9.190;2024-01-10T02:47:42;19.20;;;9.30;;
3769;SDS011;1900;48.890;9.190;2024-01-10T02:50:09;18.10;;;10.37;;
3769;SDS011;1900;48.890;9.190;2024-01-10T02:52:35;17.73;;;9.90;;
3769;SDS011;1900;48.890;9.190;2024-01-10T02:55:01;15.00;;;9.17;;
3769;SDS011;1900;48.890;9.190;2024-01-10T02:57:26;22.90;;;10.10;;
3769;SDS011;1900;48.890;9.190;2024-01-10T02:59:52;19.83;;;10.60;;
3769;SDS011;1900;48.890;9.190;2024-01-10T03:02:18;14.10;;;9.83;;
3769;SDS011;1900;48.890;9.190;2024-01-10T03:04:43;19.17;;;9.50;;
3769;SDS011;1900;48.890;9.190;2024-01-10T03:07:09;20.00;;;9.83;;
3769;SDS011;1900;48.890;9.190;2024-01-10T03:09:35;17.83;;;9.20;;
3769;SDS011;1900;48.890;9.190;2024-01-10T03:12:02;18.30;;;9.80;;
3769;SDS011;1900;48.890;9.190;2024-01-10T03:14:28;20.00;;;9.63;;
3769;SDS011;1900;48.890;9.190;2024-01-10T03:16:53;22.60;;;9.90;;
3769;SDS011;1900;48.890;9.190;2024-01-10T03:19:19;27.33;;;10.23;;
3769;SDS011;1900;48.890;9.190;2024-01-10T03:21:45;14.90;;;9.87;;
3769;SDS011;1900;48.890;9.190;2024-01-10T03:24:11;19.20;;;9.80;;
3769;SDS011;1900;48.890;9.190;2024-01-10T03:26:36;16.57;;;10.57;;
3769;SDS011;1900;48.890;9.190;2024-01-10T03:29:02;16.67;;;9.73;;
3769;SDS011;1900;48.890;9.190;2024-01-10T03:31:28;18.87;;;10.07;;
3769;SDS011;1900;48.890;9.190;2024-01-10T03:33:55;24.43;;;12.13;;
3769;SDS011;1900;48.890;9.190;2024-01-10T03:36:22;20.70;;;11.37;;
3769;SDS011;1900;48.890;9.190;2024-01-10T03:38:47;15.67;;;9.03;;
3769;SDS011;1900;48.890;9.190;2024-01-10T03:41:13;18.87;;;9.80;;
3769;SDS011;1900;48.890;9.190;2024-01-10T03:43:40;20.77;;;9.53;;
3769;SDS011;1900;48.890;9.190;2024-01-10T03:46:06;19.80;;;9.50;;
3769;SDS011;1900;48.890;9.190;2024-01-10T03:48:31;21.43;;;9.77;;
3769;SDS011;1900;48.890;9.190;2024-01-10T03:50:57;20.30;;;10.23;;
3769;SDS011;1900;48.890;9.190;2024-01-10T03:53:23;18.60;;;10.83;;
3769;SDS011;1900;48.890;9.190;2024-01-10T03:55:48;19.53;;;10.33;;
3769;SDS011;1900;48.890;9.190;2024-01-10T03:58:14;17.93;;;10.70;;
3769;SDS011;1900;48.890;9.190;2024-01-10T04:00:40;17.33;;;9.47;;
3769;SDS011;1900;48.890;9.190;2024-01-10T04:03:06;19.60;;;10.17;;
3769;SDS011;1900;48.890;9.190;2024-01-10T04:05:32;24.43;;;10.10;;
3769;SDS011;1900;48.890;9.190;2024-01-10T04:07:57;15.30;;;9.53;;
3769;SDS011;1900;48.890;9.190;2024-01-10T04:10:23;19.13;;;11.43;;
3769;SDS011;1900;48.890;9.190;2024-01-10T04:12:49;16.57;;;9.57;;
3769;SDS011;1900;48.890;9.190;2024-01-10T04:15:15;20.53;;;10.03;;
3769;SDS011;1900;48.890;9.190;2024-01-10T04:17:42;15.00;;;9.20;;
3769;SDS011;1900;48.890;9.190;2024-01-10T04:20:08;16.47;;;9.90;;
3769;SDS011;1900;48.890;9.190;2024-01-10T04:22:35;18.73;;;10.37;;
3769;SDS011;1900;48.890;9.190;2024-01-10T04:25:01;17.27;;;9.53;;
3769;SDS011;1900;48.890;9.190;2024-01-10T04:27:27;23.73;;;11.00;;
3769;SDS011;1900;48.890;9.190;2024-01-10T04:29:53;20.33;;;10.10;;
3769;SDS011;1900;48.890;9.190;2024-01-10T04:32:19;20.03;;;10.90;;
3769;SDS011;1900;48.890;9.190;2024-01-10T04:34:45;16.47;;;9.33;;
3769;SDS011;1900;48.890;9.190;2024-01-10T04:37:11;19.93;;;10.50;;
3769;SDS011;1900;48.890;9.190;2024-01-10T04:39:37;18.10;;;10.53;;
3769;SDS011;1900;48.890;9.190;2024-01-10T04:42:07;22.53;;;11.33;;
3769;SDS011;1900;48.890;9.190;2024-01-10T04:44:35;17.93;;;11.07;;
3769;SDS011;1900;48.890;9.190;2024-01-10T04:47:02;20.63;;;10.20;;
3769;SDS011;1900;48.890;9.190;2024-01-10T04:49:28;16.60;;;9.30;;
3769;SDS011;1900;48.890;9.190;2024-01-10T04:51:54;19.30;;;10.07;;
3769;SDS011;1900;48.890;9.190;2024-01-10T04:54:20;20.83;;;10.50;;
3769;SDS011;1900;48.890;9.190;2024-01-10T04:56:45;24.30;;;10.53;;
3769;SDS011;1900;48.890;9.190;2024-01-10T04:59:11;20.03;;;9.37;;
3769;SDS011;1900;48.890;9.190;2024-01-10T05:01:37;18.73;;;9.30;;
3769;SDS011;1900;48.890;9.190;2024-01-10T05:04:03;24.60;;;10.10;;
3769;SDS011;1900;48.890;9.190;2024-01-10T05:06:29;19.67;;;11.13;;
3769;SDS011;1900;48.890;9.190;2024-01-10T05:08:55;20.23;;;10.30;;
3769;SDS011;1900;48.890;9.190;2024-01-10T05:11:23;22.43;;;11.33;;
3769;SDS011;1900;48.890;9.190;2024-01-10T05:13:53;20.63;;;10.30;;
3769;SDS011;1900;48.890;9.190;2024-01-10T05:16:19;17.40;;;9.30;;
3769;SDS011;1900;48.890;9.190;2024-01-10T05:18:44;23.43;;;11.10;;
3769;SDS011;1900;48.890;9.190;2024-01-10T05:21:10;21.50;;;10.30;;
3769;SDS011;1900;48.890;9.190;2024-01-10T05:23:36;21.23;;;10.57;;
3769;SDS011;1900;48.890;9.190;2024-01-10T05:26:04;14.90;;;9.20;;
3769;SDS011;1900;48.890;9.190;2024-01-10T05:28:29;21.40;;;10.83;;
3769;SDS011;1900;48.890;9.190;2024-01-10T05:30:55;18.30;;;10.23;;
3769;SDS011;1900;48.890;9.190;2024-01-10T05:33:21;17.50;;;10.30;;
3769;SDS011;1900;48.890;9.190;2024-01-10T05:35:47;23.00;;;10.10;;
3769;SDS011;1900;48.890;9.190;2024-01-10T05:38:13;24.00;;;11.10;;
3769;SDS011;1900;48.890;9.190;2024-01-10T05:40:38;20.17;;;10.90;;
3769;SDS011;1900;48.890;9.190;2024-01-10T05:43:04;18.63;;;10.10;;
3769;SDS011;1900;48.890;9.190;2024-01-10T05:45:29;17.70;;;10.33;;
3769;SDS011;1900;48.890;9.190;2024-01-10T05:47:56;18.43;;;10.00;;
3769;SDS011;1900;48.890;9.190;2024-01-10T05:50:21;22.60;;;10.80;;
3769;SDS011;1900;48.890;9.190;2024-01-10T05:52:47;22.73;;;11.43;;
3769;SDS011;1900;48.890;9.190;2024-01-10T05:55:13;19.57;;;10.43;;
3769;SDS011;1900;48.890;9.190;2024-01-10T05:57:39;19.37;;;10.63;;
3769;SDS011;1900;48.890;9.190;2024-01-10T06:00:05;19.50;;;10.67;;
3769;SDS011;1900;48.890;9.190;2024-01-10T06:02:38;20.67;;;10.37;;
3769;SDS011;1900;48.890;9.190;2024-01-10T06:05:08;23.93;;;10.03;;
3769;SDS011;1900;48.890;9.190;2024-01-10T06:07:34;19.73;;;10.97;;
3769;SDS011;1900;48.890;9.190;2024-01-10T06:10:01;18.23;;;10.77;;
3769;SDS011;1900;48.890;9.190;2024-01-10T06:12:27;22.90;;;11.23;;
3769;SDS011;1900;48.890;9.190;2024-01-10T06:14:53;18.60;;;11.20;;
3769;SDS011;1900;48.890;9.190;2024-01-10T06:17:20;25.67;;;10.90;;
3769;SDS011;1900;48.890;9.190;2024-01-10T06:19:46;20.17;;;11.17;;
3769;SDS011;1900;48.890;9.190;2024-01-10T06:22:13;23.27;;;10.80;;
3769;SDS011;1900;48.890;9.190;2024-01-10T06:24:39;27.33;;;12.47;;
3769;SDS011;1900;48.890;9.190;2024-01-10T06:27:06;21.30;;;10.70;;
3769;SDS011;1900;48.890;9.190;2024-01-10T06:29:32;16.80;;;9.90;;
3769;SDS011;1900;48.890;9.190;2024-01-10T06:31:58;20.40;;;10.20;;
3769;SDS011;1900;48.890;9.190;2024-01-10T06:34:26;17.97;;;10.90;;
3769;SDS011;1900;48.890;9.190;2024-01-10T06:36:52;20.93;;;11.53;;
3769;SDS011;1900;48.890;9.190;2024-01-10T06:39:18;18.80;;;10.57;;
3769;SDS011;1900;48.890;9.190;2024-01-10T06:42:03;22.37;;;13.10;;
3769;SDS011;1900;48.890;9.190;2024-01-10T06:44:31;19.83;;;10.37;;
3769;SDS011;1900;48.890;9.190;2024-01-10T06:46:57;18.73;;;10.80;;
3769;SDS011;1900;48.890;9.190;2024-01-10T06:49:23;18.10;;;10.37;;
3769;SDS011;1900;48.890;9.190;2024-01-10T06:51:48;23.97;;;11.10;;
3769;SDS011;1900;48.890;9.190;2024-01-10T06:54:15;17.40;;;10.50;;
3769;SDS011;1900;48.890;9.190;2024-01-10T06:56:40;23.80;;;11.50;;
3769;SDS011;1900;48.890;9.190;2024-01-10T06:59:09;20.47;;;11.23;;
3769;SDS011;1900;48.890;9.190;2024-01-10T07:01:35;23.30;;;10.63;;
3769;SDS011;1900;48.890;9.190;2024-01-10T07:04:00;21.97;;;10.87;;
3769;SDS011;1900;48.890;9.190;2024-01-10T07:06:26;18.50;;;10.60;;
3769;SDS011;1900;48.890;9.190;2024-01-10T07:08:52;24.87;;;10.17;;
3769;SDS011;1900;48.890;9.190;2024-01-10T07:11:18;20.33;;;11.57;;
3769;SDS011;1900;48.890;9.190;2024-01-10T07:13:47;21.17;;;11.00;;
3769;SDS011;1900;48.890;9.190;2024-01-10T07:16:15;22.17;;;10.90;;
3769;SDS011;1900;48.890;9.190;2024-01-10T07:18:41;15.87;;;10.03;;
3769;SDS011;1900;48.890;9.190;2024-01-10T07:21:08;21.53;;;11.40;;
3769;SDS011;1900;48.890;9.190;2024-01-10T07:23:34;17.97;;;10.73;;
3769;SDS011;1900;48.890;9.190;2024-01-10T07:26:00;22.87;;;11.50;;
3769;SDS011;1900;48.890;9.190;2024-01-10T07:28:26;23.23;;;11.20;;
3769;SDS011;1900;48.890;9.190;2024-01-10T07:30:52;18.20;;;11.23;;
3769;SDS011;1900;48.890;9.190;2024-01-10T07:33:18;20.67;;;10.70;;
3769;SDS011;1900;48.890;9.190;2024-01-10T07:35:43;24.90;;;12.40;;
3769;SDS011;1900;48.890;9.190;2024-01-10T07:38:09;24.67;;;13.40;;
3769;SDS011;1900;48.890;9.190;2024-01-10T07:40:35;24.40;;;11.60;;
3769;SDS011;1900;48.890;9.190;2024-01-10T07:43:02;24.60;;;11.17;;
3769;SDS011;1900;48.890;9.190;2024-01-10T07:45:28;20.27;;;11.80;;
3769;SDS011;1900;48.890;9.190;2024-01-10T07:47:54;23.63;;;11.50;;
3769;SDS011;1900;48.890;9.190;2024-01-10T07:50:20;22.07;;;12.40;;
3769;SDS011;1900;48.890;9.190;2024-01-10T07:52:47;29.10;;;12.97;;
3769;SDS011;1900;48.890;9.190;2024-01-10T07:55:13;21.23;;;12.17;;
3769;SDS011;1900;48.890;9.190;2024-01-10T07:57:38;18.87;;;11.23;;
3769;SDS011;1900;48.890;9.190;2024-01-10T08:00:07;30.70;;;12.10;;
3769;SDS011;1900;48.890;9.190;2024-01-10T08:02:37;25.53;;;13.53;;
3769;SDS011;1900;48.890;9.190;2024-01-10T08:05:04;23.57;;;12.37;;
3769;SDS011;1900;48.890;9.190;2024-01-10T08:07:31;23.37;;;12.20;;
3769;SDS011;1900;48.890;9.190;2024-01-10T08:10:03;24.83;;;11.67;;
3769;SDS011;1900;48.890;9.190;2024-01-10T08:12:34;22.30;;;11.40;;
3769;SDS011;1900;48.890;9.190;2024-01-10T08:15:00;21.63;;;10.80;;
3769;SDS011;1900;48.890;9.190;2024-01-10T08:17:26;24.37;;;12.37;;
3769;SDS011;1900;48.890;9.190;2024-01-10T08:19:52;20.50;;;10.73;;
3769;SDS011;1900;48.890;9.190;2024-01-10T08:22:18;18.40;;;11.13;;
3769;SDS011;1900;48.890;9.190;2024-01-10T08:24:45;26.70;;;12.60;;
3769;SDS011;1900;48.890;9.190;2024-01-10T08:27:11;27.13;;;13.27;;
3769;SDS011;1900;48.890;9.190;2024-01-10T08:29:37;22.30;;;11.30;;
3769;SDS011;1900;48.890;9.190;2024-01-10T08:32:03;27.23;;;13.53;;
3769;SDS011;1900;48.890;9.190;2024-01-10T08:34:32;27.80;;;12.57;;
3769;SDS011;1900;48.890;9.190;2024-01-10T08:36:58;28.90;;;14.93;;
3769;SDS011;1900;48.890;9.190;2024-01-10T08:39:24;19.77;;;11.30;;
3769;SDS011;1900;48.890;9.190;2024-01-10T08:41:53;20.53;;;10.90;;
3769;SDS011;1900;48.890;9.190;2024-01-10T08:44:19;24.83;;;12.00;;
3769;SDS011;1900;48.890;9.190;2024-01-10T08:46:44;25.67;;;17.10;;
3769;SDS011;1900;48.890;9.190;2024-01-10T08:49:10;22.90;;;12.97;;
3769;SDS011;1900;48.890;9.190;2024-01-10T08:51:36;24.20;;;11.30;;
3769;SDS011;1900;48.890;9.190;2024-01-10T08:54:02;19.60;;;12.20;;
3769;SDS011;1900;48.890;9.190;2024-01-10T08:56:28;21.80;;;12.20;;
3769;SDS011;1900;48.890;9.190;2024-01-10T08:58:54;30.23;;;13.50;;
3769;SDS011;1900;48.890;9.190;2024-01-10T09:01:20;20.13;;;12.40;;
3769;SDS011;1900;48.890;9.190;2024-01-10T09:03:46;28.00;;;13.73;;
3769;SDS011;1900;48.890;9.190;2024-01-10T09:06:11;23.17;;;13.07;;
3769;SDS011;1900;48.890;9.190;2024-01-10T09:08:37;28.60;;;13.93;;
3769;SDS011;1900;48.890;9.190;2024-01-10T09:11:04;22.57;;;12.43;;
3769;SDS011;1900;48.890;9.190;2024-01-10T09:13:30;27.00;;;13.50;;
3769;SDS011;1900;48.890;9.190;2024-01-10T09:15:56;27.67;;;12.50;;
3769;SDS011;1900;48.890;9.190;2024-01-10T09:18:22;24.77;;;13.57;;
3769;SDS011;1900;48.890;9.190;2024-01-10T09:20:48;27.00;;;13.60;;
3769;SDS011;1900;48.890;9.190;2024-01-10T09:23:15;28.70;;;14.40;;
3769;SDS011;1900;48.890;9.190;2024-01-10T09:25:41;29.00;;;14.80;;
3769;SDS011;1900;48.890;9.190;2024-01-10T09:28:07;27.77;;;14.03;;
3769;SDS011;1900;48.890;9.190;2024-01-10T09:30:33;27.80;;;13.70;;
3769;SDS011;1900;48.890;9.190;2024-01-10T09:32:59;27.93;;;14.27;;
3769;SDS011;1900;48.890;9.190;2024-01-10T09:35:26;26.93;;;14.20;;
3769;SDS011;1900;48.890;9.190;2024-01-10T09:37:52;24.13;;;15.07;;
3769;SDS011;1900;48.890;9.190;2024-01-10T09:40:20;26.80;;;14.50;;
3769;SDS011;1900;48.890;9.190;2024-01-10T09:42:50;26.53;;;15.20;;
3769;SDS011;1900;48.890;9.190;2024-01-10T09:45:19;28.57;;;15.47;;
3769;SDS011;1900;48.890;9.190;2024-01-10T09:47:48;21.73;;;13.10;;
3769;SDS011;1900;48.890;9.190;2024-01-10T09:50:17;33.23;;;14.50;;
3769;SDS011;1900;48.890;9.190;2024-01-10T09:52:52;25.93;;;14.80;;
3769;SDS011;1900;48.890;9.190;2024-01-10T09:55:23;30.83;;;14.80;;
3769;SDS011;1900;48.890;9.190;2024-01-10T09:57:55;33.73;;;16.53;;
3769;SDS011;1900;48.890;9.190;2024-01-10T10:00:20;34.17;;;16.57;;
3769;SDS011;1900;48.890;9.190;2024-01-10T10:02:49;28.63;;;14.10;;
3769;SDS011;1900;48.890;9.190;2024-01-10T10:05:16;26.53;;;15.33;;
3769;SDS011;1900;48.890;9.190;2024-01-10T10:10:15;27.43;;;13.93;;
3769;SDS011;1900;48.890;9.190;2024-01-10T10:15:12;31.40;;;16.00;;
3769;SDS011;1900;48.890;9.190;2024-01-10T10:17:40;32.30;;;15.60;;
3769;SDS011;1900;48.890;9.190;2024-01-10T10:20:12;33.70;;;15.17;;
3769;SDS011;1900;48.890;9.190;2024-01-10T10:22:39;33.30;;;14.23;;
3769;SDS011;1900;48.890;9.190;2024-01-10T10:25:07;34.57;;;15.83;;
3769;SDS011;1900;48.890;9.190;2024-01-10T10:27:36;27.90;;;14.97;;
3769;SDS011;1900;48.890;9.190;2024-01-10T10:30:02;28.30;;;14.73;;
3769;SDS011;1900;48.890;9.190;2024-01-10T10:32:28;29.13;;;15.53;;
3769;SDS011;1900;48.890;9.190;2024-01-10T10:34:56;33.30;;;16.33;;
3769;SDS011;1900;48.890;9.190;2024-01-10T10:37:21;28.20;;;14.80;;
3769;SDS011;1900;48.890;9.190;2024-01-10T10:39:48;28.40;;;14.87;;
3769;SDS011;1900;48.890;9.190;2024-01-10T10:42:14;33.47;;;17.73;;
3769;SDS011;1900;48.890;9.190;2024-01-10T10:44:41;27.90;;;16.47;;
3769;SDS011;1900;48.890;9.190;2024-01-10T10:47:09;26.47;;;15.50;;
3769;SDS011;1900;48.890;9.190;2024-01-10T10:49:36;34.40;;;17.30;;
3769;SDS011;1900;48.890;9.190;2024-01-10T10:52:11;33.27;;;18.27;;
3769;SDS011;1900;48.890;9.190;2024-01-10T10:54:37;28.70;;;16.13;;
3769;SDS011;1900;48.890;9.190;2024-01-10T10:57:04;29.17;;;15.20;;
3769;SDS011;1900;48.890;9.190;2024-01-10T10:59:30;32.97;;;16.47;;
3769;SDS011;1900;48.890;9.190;2024-01-10T11:02:00;35.87;;;17.93;;
3769;SDS011;1900;48.890;9.190;2024-01-10T11:04:26;31.50;;;17.77;;
3769;SDS011;1900;48.890;9.190;2024-01-10T11:06:53;30.00;;;15.27;;
3769;SDS011;1900;48.890;9.190;2024-01-10T11:09:18;33.80;;;18.30;;
3769;SDS011;1900;48.890;9.190;2024-01-10T11:14:28;32.00;;;16.73;;
3769;SDS011;1900;48.890;9.190;2024-01-10T11:25:35;28.50;;;16.40;;
3769;SDS011;1900;48.890;9.190;2024-01-10T11:28:02;29.23;;;16.40;;
3769;SDS011;1900;48.890;9.190;2024-01-10T11:30:33;32.47;;;16.97;;
3769;SDS011;1900;48.890;9.190;2024-01-10T11:33:45;37.10;;;18.73;;
3769;SDS011;1900;48.890;9.190;2024-01-10T11:41:36;37.73;;;18.07;;
3769;SDS011;1900;48.890;9.190;2024-01-10T11:46:38;35.07;;;17.63;;
3769;SDS011;1900;48.890;9.190;2024-01-10T11:49:09;32.83;;;17.57;;
3769;SDS011;1900;48.890;9.190;2024-01-10T11:51:36;34.67;;;17.77;;
3769;SDS011;1900;48.890;9.190;2024-01-10T11:54:03;36.20;;;19.40;;
3769;SDS011;1900;48.890;9.190;2024-01-10T11:56:38;42.93;;;21.07;;
3769;SDS011;1900;48.890;9.190;2024-01-10T12:01:36;33.67;;;17.80;;
3769;SDS011;1900;48.890;9.190;2024-01-10T12:04:03;32.80;;;18.00;;
3769;SDS011;1900;48.890;9.190;2024-01-10T12:06:30;37.10;;;17.90;;
3769;SDS011;1900;48.890;9.190;2024-01-10T12:08:57;38.27;;;18.33;;
3769;SDS011;1900;48.890;9.190;2024-01-10T12:11:23;33.63;;;18.60;;
3769;SDS011;1900;48.890;9.190;2024-01-10T12:13:49;32.33;;;18.00;;
3769;SDS011;1900;48.890;9.190;2024-01-10T12:16:15;31.23;;;17.10;;
3769;SDS011;1900;48.890;9.190;2024-01-10T12:18:41;36.43;;;18.10;;
3769;SDS011;1900;48.890;9.190;2024-01-10T12:21:08;31.43;;;18.30;;
3769;SDS011;1900;48.890;9.190;2024-01-10T12:23:34;38.03;;;19.23;;
3769;SDS011;1900;48.890;9.190;2024-01-10T12:26:05;34.37;;;17.87;;
3769;SDS011;1900;48.890;9.190;2024-01-10T12:28:34;33.03;;;17.40;;
3769;SDS011;1900;48.890;9.190;2024-01-10T12:31:01;31.70;;;17.60;;
3769;SDS011;1900;48.890;9.190;2024-01-10T12:33:28;44.77;;;19.23;;
3769;SDS011;1900;48.890;9.190;2024-01-10T12:36:06;31.73;;;18.53;;
3769;SDS011;1900;48.890;9.190;2024-01-10T12:38:36;43.43;;;17.80;;
3769;SDS011;1900;48.890;9.190;2024-01-10T12:41:03;32.43;;;17.03;;
3769;SDS011;1900;48.890;9.190;2024-01-10T12:43:30;34.93;;;19.67;;
3769;SDS011;1900;48.890;9.190;2024-01-10T12:48:32;36.40;;;18.43;;
3769;SDS011;1900;48.890;9.190;2024-01-10T12:51:01;38.00;;;20.60;;
3769;SDS011;1900;48.890;9.190;2024-01-10T12:53:32;33.90;;;17.77;;
3769;SDS011;1900;48.890;9.190;2024-01-10T12:56:02;34.20;;;18.03;;
3769;SDS011;1900;48.890;9.190;2024-01-10T12:58:32;36.97;;;19.80;;
3769;SDS011;1900;48.890;9.190;2024-01-10T13:01:00;41.43;;;18.43;;
3769;SDS011;1900;48.890;9.190;2024-01-10T13:03:26;36.83;;;19.30;;
3769;SDS011;1900;48.890;9.190;2024-01-10T13:05:52;36.40;;;20.83;;
3769;SDS011;1900;48.890;9.190;2024-01-10T13:08:18;36.17;;;18.90;;
3769;SDS011;1900;48.890;9.190;2024-01-10T13:10:44;35.83;;;18.60;;
3769;SDS011;1900;48.890;9.190;2024-01-10T13:13:12;32.03;;;18.40;;
3769;SDS011;1900;48.890;9.190;2024-01-10T13:15:39;34.30;;;18.57;;
3769;SDS011;1900;48.890;9.190;2024-01-10T13:18:05;33.17;;;19.53;;
3769;SDS011;1900;48.890;9.190;2024-01-10T13:20:32;31.90;;;17.00;;
3769;SDS011;1900;48.890;9.190;2024-01-10T13:22:58;40.33;;;18.27;;
3769;SDS011;1900;48.890;9.190;2024-01-10T13:25:23;37.53;;;19.27;;
3769;SDS011;1900;48.890;9.190;2024-01-10T13:27:50;33.10;;;18.60;;
3769;SDS011;1900;48.890;9.190;2024-01-10T13:30:19;39.17;;;19.93;;
3769;SDS011;1900;48.890;9.190;2024-01-10T13:32:45;35.10;;;18.83;;
3769;SDS011;1900;48.890;9.190;2024-01-10T13:35:15;45.57;;;21.60;;
3769;SDS011;1900;48.890;9.190;2024-01-10T13:37:59;38.57;;;18.67;;
3769;SDS011;1900;48.890;9.190;2024-01-10T13:40:25;29.93;;;17.33;;
3769;SDS011;1900;48.890;9.190;2024-01-10T13:42:52;40.57;;;19.20;;
3769;SDS011;1900;48.890;9.190;2024-01-10T13:45:19;34.73;;;17.57;;
3769;SDS011;1900;48.890;9.190;2024-01-10T13:47:45;37.70;;;19.07;;
3769;SDS011;1900;48.890;9.190;2024-01-10T13:50:11;36.70;;;17.97;;
3769;SDS011;1900;48.890;9.190;2024-01-10T13:52:38;39.47;;;20.33;;
3769;SDS011;1900;48.890;9.190;2024-01-10T13:55:04;36.40;;;18.93;;
3769;SDS011;1900;48.890;9.190;2024-01-10T13:57:30;31.20;;;18.70;;
3769;SDS011;1900;48.890;9.190;2024-01-10T13:59:59;33.23;;;19.10;;
3769;SDS011;1900;48.890;9.190;2024-01-10T14:02:26;35.40;;;18.70;;
3769;SDS011;1900;48.890;9.190;2024-01-10T14:04:52;31.07;;;17.10;;
3769;SDS011;1900;48.890;9.190;2024-01-10T14:07:25;35.83;;;18.57;;
3769;SDS011;1900;48.890;9.190;2024-01-10T14:09:51;32.30;;;18.60;;
3769;SDS011;1900;48.890;9.190;2024-01-10T14:12:19;38.13;;;19.47;;
3769;SDS011;1900;48.890;9.190;2024-01-10T14:14:45;39.63;;;18.60;;
3769;SDS011;1900;48.890;9.190;2024-01-10T14:17:11;38.73;;;18.10;;
3769;SDS011;1900;48.890;9.190;2024-01-10T14:19:37;35.90;;;18.50;;
3769;SDS011;1900;48.890;9.190;2024-01-10T14:22:03;37.27;;;18.27;;
3769;SDS011;1900;48.890;9.190;2024-01-10T14:24:29;39.57;;;19.20;;
3769;SDS011;1900;48.890;9.190;2024-01-10T14:26:55;39.17;;;19.40;;
3769;SDS011;1900;48.890;9.190;2024-01-10T14:29:21;29.57;;;17.77;;
3769;SDS011;1900;48.890;9.190;2024-01-10T14:31:48;31.60;;;18.13;;
3769;SDS011;1900;48.890;9.190;2024-01-10T14:34:14;33.20;;;18.43;;
3769;SDS011;1900;48.890;9.190;2024-01-10T14:36:40;36.83;;;20.20;;
3769;SDS011;1900;48.890;9.190;2024-01-10T14:39:06;34.00;;;18.23;;
3769;SDS011;1900;48.890;9.190;2024-01-10T14:41:32;35.17;;;17.50;;
3769;SDS011;1900;48.890;9.190;2024-01-10T14:43:59;40.30;;;19.90;;
3769;SDS011;1900;48.890;9.190;2024-01-10T14:46:26;35.13;;;19.37;;
3769;SDS011;1900;48.890;9.190;2024-01-10T14:48:53;36.03;;;19.83;;
3769;SDS011;1900;48.890;9.190;2024-01-10T14:51:19;35.27;;;19.10;;
3769;SDS011;1900;48.890;9.190;2024-01-10T14:53:45;33.93;;;18.20;;
3769;SDS011;1900;48.890;9.190;2024-01-10T14:56:11;32.00;;;18.80;;
3769;SDS011;1900;48.890;9.190;2024-01-10T14:58:37;38.70;;;21.37;;
3769;SDS011;1900;48.890;9.190;2024-01-10T15:01:07;37.10;;;19.50;;
3769;SDS011;1900;48.890;9.190;2024-01-10T15:03:33;36.43;;;17.83;;
3769;SDS011;1900;48.890;9.190;2024-01-10T15:05:59;34.10;;;19.17;;
3769;SDS011;1900;48.890;9.190;2024-01-10T15:08:25;35.87;;;19.07;;
3769;SDS011;1900;48.890;9.190;2024-01-10T15:10:51;33.40;;;19.07;;
3769;SDS011;1900;48.890;9.190;2024-01-10T15:13:17;39.23;;;18.70;;
3769;SDS011;1900;48.890;9.190;2024-01-10T15:15:44;33.93;;;20.50;;
3769;SDS011;1900;48.890;9.190;2024-01-10T15:18:10;46.63;;;20.43;;